tititudorancea.com
Station Historical Data
Daily Summary for Nil La, TWC- Units:  Both    English   Metric
« Previous Day
Next Day »
Daily Weekly Monthly Yearly Custom
  High: Low: Average:
Temperature: TemperatureF °F /  -17.8 °C 45.5 °F /  7.5 °C 49.7 °F /  9.8 °C
Dew Point: DewpointF °F /  -17.8 °C 40.4 °F /  4.7 °C 44.1 °F /  6.7 °C
Humidity: Humidity % 58 % 81 %
Wind Speed: WindSpeedMPH mph /  0 km/h - 11.3 mph /  18.2 km/h
Wind Gust: WindSpeedGustMPH mph /  0 km/h - -
Wind:- - West
Pressure: PressureIn in /  0 hPa 29.87 in /  1011.4 hPa -
Precipitation: 0 in /  0 mm    
Historical Graphs
 
 
Ararat weather Find more about Weather in Ararat, AU


 



 


Tabular Data for Nil La, TWC-
Time Temperature Dew Point Pressure Wind Wind Speed Wind Gust Humidity Rainfall Rate (Hourly)
TemperatureF °F /  -17.8 °C DewpointF °F /  -17.8 °C PressureIn in /  0 hPa Calm     Humidity % HourlyPrecipIn in /  0 mm
00:04 46.9 °F /  8.3 °C 42.3 °F /  5.7 °C 30.24 in /  1023.9 hPa NW 4.6 mph /  7.4 km/h 2.6 mph /  4.2 km/h 84 % 0 in /  0 mm
00:09 47.1 °F /  8.4 °C 43.1 °F /  6.2 °C 30.24 in /  1023.9 hPa NW 9.2 mph /  14.8 km/h 4.6 mph /  7.4 km/h 86 % 0 in /  0 mm
00:14 47.8 °F /  8.8 °C 43.8 °F /  6.6 °C 30.23 in /  1023.6 hPa NW 7 mph /  11.3 km/h 4.2 mph /  6.8 km/h 86 % 0 in /  0 mm
00:19 48.4 °F /  9.1 °C 44.1 °F /  6.7 °C 30.23 in /  1023.6 hPa NW 8.1 mph /  13 km/h 4.7 mph /  7.6 km/h 85 % 0 in /  0 mm
00:24 48.7 °F /  9.3 °C 44.1 °F /  6.7 °C 30.23 in /  1023.6 hPa NW 10.4 mph /  16.7 km/h 4.6 mph /  7.4 km/h 84 % 0 in /  0 mm
00:29 48.9 °F /  9.4 °C 44.3 °F /  6.8 °C 30.23 in /  1023.6 hPa NW 5 mph /  8 km/h 4.8 mph /  7.7 km/h 84 % 0 in /  0 mm
00:34 49 °F /  9.4 °C 44.1 °F /  6.7 °C 30.23 in /  1023.6 hPa NW 4.6 mph /  7.4 km/h 3.3 mph /  5.3 km/h 83 % 0 in /  0 mm
00:39 48.9 °F /  9.4 °C 44 °F /  6.7 °C 30.23 in /  1023.6 hPa NW 5.8 mph /  9.3 km/h 4.9 mph /  7.9 km/h 83 % 0 in /  0 mm
00:44 48.6 °F /  9.2 °C 43.7 °F /  6.5 °C 30.23 in /  1023.6 hPa NW 5 mph /  8 km/h 5.8 mph /  9.3 km/h 83 % 0 in /  0 mm
00:49 48.8 °F /  9.3 °C 44.2 °F /  6.8 °C 30.23 in /  1023.6 hPa NW 6.9 mph /  11.1 km/h 5.6 mph /  9 km/h 84 % 0 in /  0 mm
00:54 49.1 °F /  9.5 °C 44.2 °F /  6.8 °C 30.23 in /  1023.6 hPa North 9.2 mph /  14.8 km/h 4.4 mph /  7.1 km/h 83 % 0 in /  0 mm
00:59 49.2 °F /  9.6 °C 44.3 °F /  6.8 °C 30.23 in /  1023.6 hPa NW 3.5 mph /  5.6 km/h 2.9 mph /  4.7 km/h 83 % 0 in /  0 mm
01:04 49.2 °F /  9.6 °C 44.3 °F /  6.8 °C 30.23 in /  1023.6 hPa NW 5.8 mph /  9.3 km/h 4.8 mph /  7.7 km/h 83 % 0 in /  0 mm
01:09 49.1 °F /  9.5 °C 44.2 °F /  6.8 °C 30.23 in /  1023.6 hPa NW 4.6 mph /  7.4 km/h 3.9 mph /  6.3 km/h 83 % 0 in /  0 mm
01:14 49.1 °F /  9.5 °C 44.2 °F /  6.8 °C 30.23 in /  1023.6 hPa North 5 mph /  8 km/h 2.9 mph /  4.7 km/h 83 % 0 in /  0 mm
01:19 49 °F /  9.4 °C 44.1 °F /  6.7 °C 30.23 in /  1023.6 hPa NW 3.5 mph /  5.6 km/h 2.4 mph /  3.9 km/h 83 % 0 in /  0 mm
01:24 48.6 °F /  9.2 °C 43.4 °F /  6.3 °C 30.23 in /  1023.6 hPa NW 3.5 mph /  5.6 km/h 2.9 mph /  4.7 km/h 82 % 0 in /  0 mm
01:29 47.5 °F /  8.6 °C 42.3 °F /  5.7 °C 30.23 in /  1023.6 hPa NW 4 mph /  6.4 km/h 3 mph /  4.8 km/h 82 % 0 in /  0 mm
01:34 46.6 °F /  8.1 °C 42 °F /  5.6 °C 30.22 in /  1023.2 hPa NW 5.8 mph /  9.3 km/h 3.5 mph /  5.6 km/h 84 % 0 in /  0 mm
01:39 46.1 °F /  7.8 °C 41.8 °F /  5.4 °C 30.22 in /  1023.2 hPa NW 4 mph /  6.4 km/h 2.3 mph /  3.7 km/h 85 % 0 in /  0 mm
01:44 45.9 °F /  7.7 °C 41.9 °F /  5.5 °C 30.22 in /  1023.2 hPa NW 3.5 mph /  5.6 km/h 2.9 mph /  4.7 km/h 86 % 0 in /  0 mm
01:49 45.8 °F /  7.7 °C 42.2 °F /  5.7 °C 30.22 in /  1023.2 hPa NW 3.5 mph /  5.6 km/h 1.6 mph /  2.6 km/h 87 % 0 in /  0 mm
01:54 45.6 °F /  7.6 °C 42 °F /  5.6 °C 30.22 in /  1023.2 hPa North 4 mph /  6.4 km/h 3.8 mph /  6.1 km/h 87 % 0 in /  0 mm
01:59 45.5 °F /  7.5 °C 42.2 °F /  5.7 °C 30.22 in /  1023.2 hPa NW 3.5 mph /  5.6 km/h 2.7 mph /  4.3 km/h 88 % 0 in /  0 mm
02:04 45.5 °F /  7.5 °C 42.2 °F /  5.7 °C 30.21 in /  1022.9 hPa NW 4.6 mph /  7.4 km/h 3.5 mph /  5.6 km/h 88 % 0 in /  0 mm
02:09 45.6 °F /  7.6 °C 42.3 °F /  5.7 °C 30.21 in /  1022.9 hPa NW 2.3 mph /  3.7 km/h   88 % 0 in /  0 mm
02:14 45.5 °F /  7.5 °C 42.2 °F /  5.7 °C 30.21 in /  1022.9 hPa NW 1.2 mph /  1.9 km/h 1 mph /  1.6 km/h 88 % 0 in /  0 mm
02:19 45.6 °F /  7.6 °C 42.5 °F /  5.8 °C 30.21 in /  1022.9 hPa NW 4.6 mph /  7.4 km/h 1.7 mph /  2.7 km/h 89 % 0 in /  0 mm
02:24 45.9 °F /  7.7 °C 42.8 °F /  6 °C 30.21 in /  1022.9 hPa North 3.5 mph /  5.6 km/h 2.4 mph /  3.9 km/h 89 % 0 in /  0 mm
02:29 46.3 °F /  7.9 °C 43.2 °F /  6.2 °C 30.21 in /  1022.9 hPa NW 4.6 mph /  7.4 km/h 3.8 mph /  6.1 km/h 89 % 0 in /  0 mm
02:34 46.6 °F /  8.1 °C 43.2 °F /  6.2 °C 30.21 in /  1022.9 hPa North 5 mph /  8 km/h 3.4 mph /  5.5 km/h 88 % 0 in /  0 mm
02:39 46.6 °F /  8.1 °C 43.2 °F /  6.2 °C 30.21 in /  1022.9 hPa NW 4 mph /  6.4 km/h 3.5 mph /  5.6 km/h 88 % 0 in /  0 mm
02:44 46.7 °F /  8.2 °C 44.5 °F /  6.9 °C 30.20 in /  1022.6 hPa NW 3.5 mph /  5.6 km/h 2.4 mph /  3.9 km/h 92 % 0 in /  0 mm
02:49 46.9 °F /  8.3 °C 43.5 °F /  6.4 °C 30.20 in /  1022.6 hPa North 4.6 mph /  7.4 km/h 2.6 mph /  4.2 km/h 88 % 0 in /  0 mm
02:54 47 °F /  8.3 °C 43.6 °F /  6.4 °C 30.20 in /  1022.6 hPa NW 3.5 mph /  5.6 km/h 4.6 mph /  7.4 km/h 88 % 0 in /  0 mm
02:59 47.5 °F /  8.6 °C 43.8 °F /  6.6 °C 30.20 in /  1022.6 hPa NW 3.5 mph /  5.6 km/h 3.6 mph /  5.8 km/h 87 % 0 in /  0 mm
03:04 47.5 °F /  8.6 °C 43.5 °F /  6.4 °C 30.20 in /  1022.6 hPa NW 4.6 mph /  7.4 km/h 3.1 mph /  5 km/h 86 % 0 in /  0 mm
03:09 48.1 °F /  8.9 °C 43.8 °F /  6.6 °C 30.20 in /  1022.6 hPa NW 4.6 mph /  7.4 km/h 2.3 mph /  3.7 km/h 85 % 0 in /  0 mm
03:14 48.1 °F /  8.9 °C 43.5 °F /  6.4 °C 30.20 in /  1022.6 hPa NW 4 mph /  6.4 km/h 1.8 mph /  2.9 km/h 84 % 0 in /  0 mm
03:19 47.6 °F /  8.7 °C 43 °F /  6.1 °C 30.19 in /  1022.2 hPa NW 3.5 mph /  5.6 km/h 2.5 mph /  4 km/h 84 % 0 in /  0 mm
03:24 47.1 °F /  8.4 °C 42.5 °F /  5.8 °C 30.19 in /  1022.2 hPa NW 4.6 mph /  7.4 km/h 4.2 mph /  6.8 km/h 84 % 0 in /  0 mm
03:29 46.5 °F /  8.1 °C 42.2 °F /  5.7 °C 30.19 in /  1022.2 hPa NW 4 mph /  6.4 km/h 4 mph /  6.4 km/h 85 % 0 in /  0 mm
03:34 46.1 °F /  7.8 °C 42.1 °F /  5.6 °C 30.19 in /  1022.2 hPa NW 3.5 mph /  5.6 km/h 1.5 mph /  2.4 km/h 86 % 0 in /  0 mm
03:39 45.7 °F /  7.6 °C 41.8 °F /  5.4 °C 30.19 in /  1022.2 hPa NW 3 mph /  4.8 km/h 1.5 mph /  2.4 km/h 86 % 0 in /  0 mm
03:44 45.5 °F /  7.5 °C 41.9 °F /  5.5 °C 30.19 in /  1022.2 hPa North 4.6 mph /  7.4 km/h 3.8 mph /  6.1 km/h 87 % 0 in /  0 mm
03:49 45.8 °F /  7.7 °C 42.7 °F /  5.9 °C 30.19 in /  1022.2 hPa NW 6.9 mph /  11.1 km/h 5 mph /  8 km/h 89 % 0 in /  0 mm
03:54 46.1 °F /  7.8 °C 42.7 °F /  5.9 °C 30.18 in /  1021.9 hPa NW 4.6 mph /  7.4 km/h 3.5 mph /  5.6 km/h 88 % 0 in /  0 mm
03:59 46.4 °F /  8 °C 43 °F /  6.1 °C 30.19 in /  1022.2 hPa North 6.9 mph /  11.1 km/h 4.3 mph /  6.9 km/h 88 % 0 in /  0 mm
04:04 46.5 °F /  8.1 °C 42.8 °F /  6 °C 30.18 in /  1021.9 hPa North 5 mph /  8 km/h 4 mph /  6.4 km/h 87 % 0 in /  0 mm
04:09 46.6 °F /  8.1 °C 42.9 °F /  6.1 °C 30.19 in /  1022.2 hPa North 4.6 mph /  7.4 km/h 3.6 mph /  5.8 km/h 87 % 0 in /  0 mm
04:14 46.5 °F /  8.1 °C 42.8 °F /  6 °C 30.18 in /  1021.9 hPa North 4.6 mph /  7.4 km/h 4.5 mph /  7.2 km/h 87 % 0 in /  0 mm
04:19 46.6 °F /  8.1 °C 42.9 °F /  6.1 °C 30.18 in /  1021.9 hPa NW 5.8 mph /  9.3 km/h 3.1 mph /  5 km/h 87 % 0 in /  0 mm
04:24 46.7 °F /  8.2 °C 43 °F /  6.1 °C 30.18 in /  1021.9 hPa North 5.8 mph /  9.3 km/h 5.2 mph /  8.4 km/h 87 % 0 in /  0 mm
04:29 46.9 °F /  8.3 °C 43.2 °F /  6.2 °C 30.18 in /  1021.9 hPa NW 7 mph /  11.3 km/h 3.8 mph /  6.1 km/h 87 % 0 in /  0 mm
04:34 47.1 °F /  8.4 °C 43.4 °F /  6.3 °C 30.18 in /  1021.9 hPa NW 6.9 mph /  11.1 km/h 4.1 mph /  6.6 km/h 87 % 0 in /  0 mm
04:39 47.1 °F /  8.4 °C 43.1 °F /  6.2 °C 30.19 in /  1022.2 hPa NW 5.8 mph /  9.3 km/h 4.1 mph /  6.6 km/h 86 % 0 in /  0 mm
04:44 47.3 °F /  8.5 °C 43.3 °F /  6.3 °C 30.18 in /  1021.9 hPa NW 5.8 mph /  9.3 km/h 4 mph /  6.4 km/h 86 % 0 in /  0 mm
04:49 47.4 °F /  8.6 °C 43.4 °F /  6.3 °C 30.18 in /  1021.9 hPa NW 6.9 mph /  11.1 km/h 3.8 mph /  6.1 km/h 86 % 0 in /  0 mm
04:54 47.3 °F /  8.5 °C 43.3 °F /  6.3 °C 30.18 in /  1021.9 hPa NW 6.9 mph /  11.1 km/h 4.2 mph /  6.8 km/h 86 % 0 in /  0 mm
04:59 46.9 °F /  8.3 °C 42.9 °F /  6.1 °C 30.19 in /  1022.2 hPa NW 9.2 mph /  14.8 km/h 4.8 mph /  7.7 km/h 86 % 0 in /  0 mm
05:04 46.7 °F /  8.2 °C 43 °F /  6.1 °C 30.19 in /  1022.2 hPa NW 6 mph /  9.7 km/h 4 mph /  6.4 km/h 87 % 0 in /  0 mm
05:09 46.4 °F /  8 °C 42.7 °F /  5.9 °C 30.19 in /  1022.2 hPa NNW 6 mph /  9.7 km/h 4.8 mph /  7.7 km/h 87 % 0 in /  0 mm
05:14 46.4 °F /  8 °C 43.3 °F /  6.3 °C 30.18 in /  1021.9 hPa NNW 8.1 mph /  13 km/h 5.4 mph /  8.7 km/h 89 % 0 in /  0 mm
05:19 46.3 °F /  7.9 °C 43.2 °F /  6.2 °C 30.18 in /  1021.9 hPa NNW 4.6 mph /  7.4 km/h 3.3 mph /  5.3 km/h 89 % 0 in /  0 mm
05:24 46.1 °F /  7.8 °C 43 °F /  6.1 °C 30.18 in /  1021.9 hPa NNW 3.5 mph /  5.6 km/h 2.7 mph /  4.3 km/h 89 % 0 in /  0 mm
05:29 45.8 °F /  7.7 °C 43 °F /  6.1 °C 30.18 in /  1021.9 hPa NNW 7 mph /  11.3 km/h 2.8 mph /  4.5 km/h 90 % 0 in /  0 mm
05:34 46.3 °F /  7.9 °C 43.8 °F /  6.6 °C 30.18 in /  1021.9 hPa North 11.5 mph /  18.5 km/h 6.2 mph /  10 km/h 91 % 0 in /  0 mm
05:39 46.7 °F /  8.2 °C 44.2 °F /  6.8 °C 30.17 in /  1021.6 hPa NNW 10.4 mph /  16.7 km/h 7.2 mph /  11.6 km/h 91 % 0 in /  0 mm
05:44 46.9 °F /  8.3 °C 44.1 °F /  6.7 °C 30.17 in /  1021.6 hPa NNW 9 mph /  14.5 km/h 5.3 mph /  8.5 km/h 90 % 0 in /  0 mm
05:49 46.9 °F /  8.3 °C 44.1 °F /  6.7 °C 30.18 in /  1021.9 hPa NW 12.7 mph /  20.4 km/h 6.9 mph /  11.1 km/h 90 % 0 in /  0 mm
05:54 46.8 °F /  8.2 °C 44 °F /  6.7 °C 30.18 in /  1021.9 hPa NNW 13.8 mph /  22.2 km/h 8.8 mph /  14.2 km/h 90 % 0 in /  0 mm
05:59 46.7 °F /  8.2 °C 44.2 °F /  6.8 °C 30.18 in /  1021.9 hPa North 15 mph /  24.1 km/h 10.7 mph /  17.2 km/h 91 % 0 in /  0 mm
06:04 46.7 °F /  8.2 °C 44.2 °F /  6.8 °C 30.18 in /  1021.9 hPa NNW 15 mph /  24.1 km/h 8.7 mph /  14 km/h 91 % 0 in /  0 mm
06:09 46.7 °F /  8.2 °C 44.2 °F /  6.8 °C 30.17 in /  1021.6 hPa North 13.8 mph /  22.2 km/h 7.2 mph /  11.6 km/h 91 % 0 in /  0 mm
06:14 46.6 °F /  8.1 °C 44.1 °F /  6.7 °C 30.18 in /  1021.9 hPa North 10.4 mph /  16.7 km/h 7 mph /  11.3 km/h 91 % 0 in /  0 mm
06:19 46.5 °F /  8.1 °C 44 °F /  6.7 °C 30.18 in /  1021.9 hPa North 9.2 mph /  14.8 km/h 5.8 mph /  9.3 km/h 91 % 0 in /  0 mm
06:24 46.5 °F /  8.1 °C 44.3 °F /  6.8 °C 30.18 in /  1021.9 hPa North 6 mph /  9.7 km/h 5.3 mph /  8.5 km/h 92 % 0 in /  0 mm
06:29 46.5 °F /  8.1 °C 44.3 °F /  6.8 °C 30.18 in /  1021.9 hPa North 8 mph /  12.9 km/h 5.6 mph /  9 km/h 92 % 0 in /  0 mm
06:34 46.5 °F /  8.1 °C 44.3 °F /  6.8 °C 30.18 in /  1021.9 hPa North 6.9 mph /  11.1 km/h 3.8 mph /  6.1 km/h 92 % 0 in /  0 mm
06:39 46.4 °F /  8 °C 44.2 °F /  6.8 °C 30.18 in /  1021.9 hPa North 6.9 mph /  11.1 km/h 4.4 mph /  7.1 km/h 92 % 0 in /  0 mm
06:44 46.2 °F /  7.9 °C 44 °F /  6.7 °C 30.18 in /  1021.9 hPa North 9.2 mph /  14.8 km/h 5.8 mph /  9.3 km/h 92 % 0 in /  0 mm
06:49 46.2 °F /  7.9 °C 44 °F /  6.7 °C 30.17 in /  1021.6 hPa North 10.4 mph /  16.7 km/h 3.9 mph /  6.3 km/h 92 % 0 in /  0 mm
06:54 46.3 °F /  7.9 °C 44.1 °F /  6.7 °C 30.17 in /  1021.6 hPa NNW 13.8 mph /  22.2 km/h 5.2 mph /  8.4 km/h 92 % 0 in /  0 mm
06:59 46.4 °F /  8 °C 44.2 °F /  6.8 °C 30.17 in /  1021.6 hPa NNW 9.2 mph /  14.8 km/h 6.6 mph /  10.6 km/h 92 % 0 in /  0 mm
07:04 46.4 °F /  8 °C 44.2 °F /  6.8 °C 30.17 in /  1021.6 hPa NW 15 mph /  24.1 km/h 5.6 mph /  9 km/h 92 % 0 in /  0 mm
07:09 46.5 °F /  8.1 °C 44.3 °F /  6.8 °C 30.17 in /  1021.6 hPa NNW 11.5 mph /  18.5 km/h 5.8 mph /  9.3 km/h 92 % 0 in /  0 mm
07:14 46.5 °F /  8.1 °C 44.3 °F /  6.8 °C 30.18 in /  1021.9 hPa North 10 mph /  16.1 km/h 8.2 mph /  13.2 km/h 92 % 0 in /  0 mm
07:19 46.5 °F /  8.1 °C 44.3 °F /  6.8 °C 30.18 in /  1021.9 hPa North 13 mph /  20.9 km/h 7.3 mph /  11.7 km/h 92 % 0 in /  0 mm
07:24 46.5 °F /  8.1 °C 44.3 °F /  6.8 °C 30.18 in /  1021.9 hPa NNW 12 mph /  19.3 km/h 5.8 mph /  9.3 km/h 92 % 0 in /  0 mm
07:29 46.5 °F /  8.1 °C 44.6 °F /  7 °C 30.18 in /  1021.9 hPa NNW 17.3 mph /  27.8 km/h 10.2 mph /  16.4 km/h 93 % 0 in /  0 mm
07:34 46.6 °F /  8.1 °C 44.4 °F /  6.9 °C 30.18 in /  1021.9 hPa North 17.3 mph /  27.8 km/h 9.8 mph /  15.8 km/h 92 % 0 in /  0 mm
07:39 46.7 °F /  8.2 °C 44.5 °F /  6.9 °C 30.18 in /  1021.9 hPa NNW 11.5 mph /  18.5 km/h 7 mph /  11.3 km/h 92 % 0 in /  0 mm
07:44 46.8 °F /  8.2 °C 44.6 °F /  7 °C 30.18 in /  1021.9 hPa NNE 12 mph /  19.3 km/h 12.6 mph /  20.3 km/h 92 % 0 in /  0 mm
07:49 46.9 °F /  8.3 °C 44.7 °F /  7.1 °C 30.18 in /  1021.9 hPa NNE 11.5 mph /  18.5 km/h 7.7 mph /  12.4 km/h 92 % 0 in /  0 mm
07:54 46.9 °F /  8.3 °C 44.7 °F /  7.1 °C 30.18 in /  1021.9 hPa NNE 10.4 mph /  16.7 km/h 8 mph /  12.9 km/h 92 % 0 in /  0 mm
07:59 46.8 °F /  8.2 °C 44.6 °F /  7 °C 30.18 in /  1021.9 hPa NNE 10.4 mph /  16.7 km/h 6.8 mph /  10.9 km/h 92 % 0 in /  0 mm
08:04 46.7 °F /  8.2 °C 44.5 °F /  6.9 °C 30.18 in /  1021.9 hPa NNE 7 mph /  11.3 km/h 6 mph /  9.7 km/h 92 % 0 in /  0 mm
08:09 46.6 °F /  8.1 °C 44.4 °F /  6.9 °C 30.18 in /  1021.9 hPa NNE 11.5 mph /  18.5 km/h 4 mph /  6.4 km/h 92 % 0 in /  0 mm
08:14 46.5 °F /  8.1 °C 44.3 °F /  6.8 °C 30.18 in /  1021.9 hPa NNE 9.2 mph /  14.8 km/h 5.9 mph /  9.5 km/h 92 % 0 in /  0 mm
08:19 46.3 °F /  7.9 °C 44.1 °F /  6.7 °C 30.18 in /  1021.9 hPa NNE 10.4 mph /  16.7 km/h 5.3 mph /  8.5 km/h 92 % 0 in /  0 mm
08:24 46.2 °F /  7.9 °C 44 °F /  6.7 °C 30.18 in /  1021.9 hPa NNE 10.4 mph /  16.7 km/h 4.2 mph /  6.8 km/h 92 % 0 in /  0 mm
08:29 46.1 °F /  7.8 °C 44.2 °F /  6.8 °C 30.18 in /  1021.9 hPa NNE 10.4 mph /  16.7 km/h 5.9 mph /  9.5 km/h 93 % 0 in /  0 mm
08:34 46.2 °F /  7.9 °C 44.3 °F /  6.8 °C 30.18 in /  1021.9 hPa NNE 3.5 mph /  5.6 km/h 3.4 mph /  5.5 km/h 93 % 0 in /  0 mm
08:39 46.3 °F /  7.9 °C 44.4 °F /  6.9 °C 30.17 in /  1021.6 hPa NNE 9.2 mph /  14.8 km/h 7.5 mph /  12.1 km/h 93 % 0 in /  0 mm
08:42 46.3 °F /  7.9 °C 44.4 °F /  6.9 °C 30.17 in /  1021.6 hPa NNE 10.4 mph /  16.7 km/h 7.8 mph /  12.6 km/h 93 % 0 in /  0 mm
08:49 46.7 °F /  8.2 °C 44.8 °F /  7.1 °C 30.17 in /  1021.6 hPa NNE 11.5 mph /  18.5 km/h 5.6 mph /  9 km/h 93 % 0 in /  0 mm
08:54 46.8 °F /  8.2 °C 44.9 °F /  7.2 °C 30.16 in /  1021.2 hPa NNE 11.5 mph /  18.5 km/h 7.1 mph /  11.4 km/h 93 % 0 in /  0 mm
08:59 46.9 °F /  8.3 °C 44.7 °F /  7.1 °C 30.16 in /  1021.2 hPa North 9.2 mph /  14.8 km/h 4.7 mph /  7.6 km/h 92 % 0 in /  0 mm
09:04 47.1 °F /  8.4 °C 44.9 °F /  7.2 °C 30.16 in /  1021.2 hPa North 12.7 mph /  20.4 km/h 7.9 mph /  12.7 km/h 92 % 0 in /  0 mm
09:09 47.3 °F /  8.5 °C 45.1 °F /  7.3 °C 30.16 in /  1021.2 hPa NNE 11.5 mph /  18.5 km/h 6.9 mph /  11.1 km/h 92 % 0 in /  0 mm
09:14 47.6 °F /  8.7 °C 45.4 °F /  7.4 °C 30.16 in /  1021.2 hPa NNE 11.5 mph /  18.5 km/h 8 mph /  12.9 km/h 92 % 0 in /  0 mm
09:19 48 °F /  8.9 °C 45.5 °F /  7.5 °C 30.16 in /  1021.2 hPa North 12.7 mph /  20.4 km/h 7.9 mph /  12.7 km/h 91 % 0 in /  0 mm
09:24 48.3 °F /  9.1 °C 45.8 °F /  7.7 °C 30.15 in /  1020.9 hPa North 13.8 mph /  22.2 km/h 7.7 mph /  12.4 km/h 91 % 0 in /  0 mm
09:29 48.6 °F /  9.2 °C 45.5 °F /  7.5 °C 30.15 in /  1020.9 hPa North 16.1 mph /  25.9 km/h 10.3 mph /  16.6 km/h 89 % 0 in /  0 mm
09:34 48.9 °F /  9.4 °C 45.8 °F /  7.7 °C 30.15 in /  1020.9 hPa North 11.5 mph /  18.5 km/h 6.8 mph /  10.9 km/h 89 % 0 in /  0 mm
09:39 49.4 °F /  9.7 °C 46 °F /  7.8 °C 30.15 in /  1020.9 hPa North 11.5 mph /  18.5 km/h 8.6 mph /  13.8 km/h 88 % 0 in /  0 mm
09:44 49.8 °F /  9.9 °C 46.1 °F /  7.8 °C 30.15 in /  1020.9 hPa NW 12.7 mph /  20.4 km/h 11.9 mph /  19.2 km/h 87 % 0 in /  0 mm
09:49 50 °F /  10 °C 46 °F /  7.8 °C 30.15 in /  1020.9 hPa North 17.3 mph /  27.8 km/h 12 mph /  19.3 km/h 86 % 0 in /  0 mm
09:54 50.2 °F /  10.1 °C 45.9 °F /  7.7 °C 30.14 in /  1020.5 hPa North 18.4 mph /  29.6 km/h 12.1 mph /  19.5 km/h 85 % 0 in /  0 mm
09:59 50.4 °F /  10.2 °C 46.1 °F /  7.8 °C 30.14 in /  1020.5 hPa North 18.4 mph /  29.6 km/h 10.1 mph /  16.3 km/h 85 % 0 in /  0 mm
10:04 50.5 °F /  10.3 °C 45.8 °F /  7.7 °C 30.13 in /  1020.2 hPa North 26.5 mph /  42.6 km/h 15.6 mph /  25.1 km/h 84 % 0 in /  0 mm
10:09 50.6 °F /  10.3 °C 45.9 °F /  7.7 °C 30.13 in /  1020.2 hPa NNW 21 mph /  33.8 km/h 11.4 mph /  18.3 km/h 84 % 0 in /  0 mm
10:14 50.8 °F /  10.4 °C 45.8 °F /  7.7 °C 30.13 in /  1020.2 hPa North 11.5 mph /  18.5 km/h 11.1 mph /  17.9 km/h 83 % 0 in /  0 mm
10:19 50.9 °F /  10.5 °C 45.6 °F /  7.6 °C 30.12 in /  1019.9 hPa North 28.8 mph /  46.3 km/h 10 mph /  16.1 km/h 82 % 0 in /  0 mm
10:24 50.9 °F /  10.5 °C 45.6 °F /  7.6 °C 30.12 in /  1019.9 hPa NNW 28 mph /  45.1 km/h 16.5 mph /  26.6 km/h 82 % 0 in /  0 mm
10:29 51 °F /  10.6 °C 45.4 °F /  7.4 °C 30.12 in /  1019.9 hPa North 20.7 mph /  33.3 km/h 13.5 mph /  21.7 km/h 81 % 0 in /  0 mm
10:34 51.3 °F /  10.7 °C 45.7 °F /  7.6 °C 30.12 in /  1019.9 hPa NNE 17 mph /  27.4 km/h 14.1 mph /  22.7 km/h 81 % 0 in /  0 mm
10:39 51.1 °F /  10.6 °C 45.1 °F /  7.3 °C 30.12 in /  1019.9 hPa NW 20.7 mph /  33.3 km/h 13.6 mph /  21.9 km/h 80 % 0 in /  0 mm
10:44 51.2 °F /  10.7 °C 45.2 °F /  7.3 °C 30.12 in /  1019.9 hPa NNW 19.6 mph /  31.5 km/h 10.9 mph /  17.5 km/h 80 % 0 in /  0 mm
10:49 51.5 °F /  10.8 °C 45.5 °F /  7.5 °C 30.12 in /  1019.9 hPa NW 17.3 mph /  27.8 km/h 12.5 mph /  20.1 km/h 80 % 0 in /  0 mm
10:54 51.3 °F /  10.7 °C 45.3 °F /  7.4 °C 30.12 in /  1019.9 hPa NNW 20.7 mph /  33.3 km/h 11.4 mph /  18.3 km/h 80 % 0 in /  0 mm
10:59 51.3 °F /  10.7 °C 45.7 °F /  7.6 °C 30.12 in /  1019.9 hPa North 19.6 mph /  31.5 km/h 12 mph /  19.3 km/h 81 % 0 in /  0 mm
11:04 51.6 °F /  10.9 °C 45.6 °F /  7.6 °C 30.12 in /  1019.9 hPa North 17.3 mph /  27.8 km/h 14.3 mph /  23 km/h 80 % 0 in /  0 mm
11:09 51.7 °F /  10.9 °C 45.7 °F /  7.6 °C 30.11 in /  1019.5 hPa North 15 mph /  24.1 km/h 7.4 mph /  11.9 km/h 80 % 0 in /  0 mm
11:14 51.9 °F /  11.1 °C 45.9 °F /  7.7 °C 30.11 in /  1019.5 hPa NNW 19.6 mph /  31.5 km/h 5.6 mph /  9 km/h 80 % 0 in /  0 mm
11:19 52.2 °F /  11.2 °C 45.9 °F /  7.7 °C 30.11 in /  1019.5 hPa North 17.3 mph /  27.8 km/h 12.5 mph /  20.1 km/h 79 % 0 in /  0 mm
11:24 52.5 °F /  11.4 °C 46.5 °F /  8.1 °C 30.10 in /  1019.2 hPa North 13.8 mph /  22.2 km/h 8.3 mph /  13.4 km/h 80 % 0 in /  0 mm
11:29 52.6 °F /  11.4 °C 45.9 °F /  7.7 °C 30.10 in /  1019.2 hPa North 17.3 mph /  27.8 km/h 11.1 mph /  17.9 km/h 78 % 0 in /  0 mm
11:34 52.7 °F /  11.5 °C 46 °F /  7.8 °C 30.10 in /  1019.2 hPa NNW 17.3 mph /  27.8 km/h 12.3 mph /  19.8 km/h 78 % 0 in /  0 mm
11:39 53 °F /  11.7 °C 46.3 °F /  7.9 °C 30.09 in /  1018.8 hPa North 16.1 mph /  25.9 km/h 9.8 mph /  15.8 km/h 78 % 0 in /  0 mm
11:44 53.1 °F /  11.7 °C 46.4 °F /  8 °C 30.09 in /  1018.8 hPa NNW 19.6 mph /  31.5 km/h 9.8 mph /  15.8 km/h 78 % 0 in /  0 mm
11:49 53.1 °F /  11.7 °C 46.4 °F /  8 °C 30.08 in /  1018.5 hPa North 23 mph /  37 km/h 14.6 mph /  23.5 km/h 78 % 0 in /  0 mm
11:54 53.2 °F /  11.8 °C 46.5 °F /  8.1 °C 30.07 in /  1018.2 hPa NNW 21.9 mph /  35.2 km/h 11.8 mph /  19 km/h 78 % 0 in /  0 mm
11:59 53.2 °F /  11.8 °C 46.5 °F /  8.1 °C 30.07 in /  1018.2 hPa NNW 19.6 mph /  31.5 km/h 16.8 mph /  27 km/h 78 % 0 in /  0 mm
12:04 53.3 °F /  11.8 °C 46.6 °F /  8.1 °C 30.07 in /  1018.2 hPa North 20 mph /  32.2 km/h 13.2 mph /  21.2 km/h 78 % 0 in /  0 mm
12:09 53.3 °F /  11.8 °C 46.6 °F /  8.1 °C 30.07 in /  1018.2 hPa North 17.3 mph /  27.8 km/h 13.6 mph /  21.9 km/h 78 % 0 in /  0 mm
12:14 53.4 °F /  11.9 °C 46.7 °F /  8.2 °C 30.07 in /  1018.2 hPa NW 15 mph /  24.1 km/h 14.7 mph /  23.7 km/h 78 % 0 in /  0 mm
12:19 54 °F /  12.2 °C 47.6 °F /  8.7 °C 30.07 in /  1018.2 hPa North 15 mph /  24.1 km/h 11.6 mph /  18.7 km/h 79 % 0 in /  0 mm
12:24 54.6 °F /  12.6 °C 47.9 °F /  8.8 °C 30.07 in /  1018.2 hPa NNE 17.3 mph /  27.8 km/h 7.2 mph /  11.6 km/h 78 % 0 in /  0 mm
12:29 55.2 °F /  12.9 °C 47.8 °F /  8.8 °C 30.06 in /  1017.8 hPa NNW 11.5 mph /  18.5 km/h 8.1 mph /  13 km/h 76 % 0 in /  0 mm
12:34 55.6 °F /  13.1 °C 47.4 °F /  8.6 °C 30.06 in /  1017.8 hPa North 21.9 mph /  35.2 km/h 11.1 mph /  17.9 km/h 74 % 0 in /  0 mm
12:39 55.9 °F /  13.3 °C 47.4 °F /  8.6 °C 30.05 in /  1017.5 hPa North 12.7 mph /  20.4 km/h 11 mph /  17.7 km/h 73 % 0 in /  0 mm
12:44 56.1 °F /  13.4 °C 47.6 °F /  8.7 °C 30.05 in /  1017.5 hPa NNW 16.1 mph /  25.9 km/h 6.6 mph /  10.6 km/h 73 % 0 in /  0 mm
12:49 56.4 °F /  13.6 °C 47.1 °F /  8.4 °C 30.04 in /  1017.2 hPa North 16.1 mph /  25.9 km/h 9 mph /  14.5 km/h 71 % 0 in /  0 mm
12:54 56.4 °F /  13.6 °C 47.5 °F /  8.6 °C 30.04 in /  1017.2 hPa North 13.8 mph /  22.2 km/h 9 mph /  14.5 km/h 72 % 0 in /  0 mm
12:59 56.7 °F /  13.7 °C 47.8 °F /  8.8 °C 30.04 in /  1017.2 hPa North 16.1 mph /  25.9 km/h 5.7 mph /  9.2 km/h 72 % 0 in /  0 mm
13:04 57 °F /  13.9 °C 47.7 °F /  8.7 °C 30.03 in /  1016.8 hPa North 13.8 mph /  22.2 km/h 4.7 mph /  7.6 km/h 71 % 0 in /  0 mm
13:09 56.9 °F /  13.8 °C 47.2 °F /  8.4 °C 30.02 in /  1016.5 hPa North 20.7 mph /  33.3 km/h 10.2 mph /  16.4 km/h 70 % 0 in /  0 mm
13:14 57.2 °F /  14 °C 47.1 °F /  8.4 °C 30.02 in /  1016.5 hPa North 13.8 mph /  22.2 km/h 10 mph /  16.1 km/h 69 % 0 in /  0 mm
13:19 57.7 °F /  14.3 °C 47.2 °F /  8.4 °C 30.02 in /  1016.5 hPa NW 17 mph /  27.4 km/h 11.3 mph /  18.2 km/h 68 % 0 in /  0 mm
13:24 57.6 °F /  14.2 °C 46.7 °F /  8.2 °C 30.01 in /  1016.1 hPa NNE 20.7 mph /  33.3 km/h 12.8 mph /  20.6 km/h 67 % 0 in /  0 mm
13:29 57.5 °F /  14.2 °C 47 °F /  8.3 °C 30.01 in /  1016.1 hPa NNW 21.9 mph /  35.2 km/h 9.6 mph /  15.4 km/h 68 % 0 in /  0 mm
13:34 57.9 °F /  14.4 °C 47.4 °F /  8.6 °C 30.01 in /  1016.1 hPa NNW 18.4 mph /  29.6 km/h 9.6 mph /  15.4 km/h 68 % 0 in /  0 mm
13:39 58 °F /  14.4 °C 45.9 °F /  7.7 °C 30.00 in /  1015.8 hPa NNW 18.4 mph /  29.6 km/h 11 mph /  17.7 km/h 64 % 0 in /  0 mm
13:44 58.1 °F /  14.5 °C 47.6 °F /  8.7 °C 30.00 in /  1015.8 hPa North 13.8 mph /  22.2 km/h 9.2 mph /  14.8 km/h 68 % 0 in /  0 mm
13:49 58 °F /  14.4 °C 46.3 °F /  7.9 °C 30.00 in /  1015.8 hPa North 24.2 mph /  38.9 km/h 13.8 mph /  22.2 km/h 65 % 0 in /  0 mm
13:54 57.9 °F /  14.4 °C 46.6 °F /  8.1 °C 30.00 in /  1015.8 hPa NNW 19.6 mph /  31.5 km/h 12.8 mph /  20.6 km/h 66 % 0 in /  0 mm
13:59 58.1 °F /  14.5 °C 46.8 °F /  8.2 °C 29.99 in /  1015.5 hPa North 18 mph /  29 km/h 11.5 mph /  18.5 km/h 66 % 0 in /  0 mm
14:04 58.4 °F /  14.7 °C 46.7 °F /  8.2 °C 29.99 in /  1015.5 hPa North 18.4 mph /  29.6 km/h 11.3 mph /  18.2 km/h 65 % 0 in /  0 mm
14:09 58.2 °F /  14.6 °C 45.7 °F /  7.6 °C 29.99 in /  1015.5 hPa North 23 mph /  37 km/h 11.5 mph /  18.5 km/h 63 % 0 in /  0 mm
14:14 58.5 °F /  14.7 °C 47.2 °F /  8.4 °C 29.99 in /  1015.5 hPa North 13.8 mph /  22.2 km/h 9.5 mph /  15.3 km/h 66 % 0 in /  0 mm
14:19 58.4 °F /  14.7 °C 47.1 °F /  8.4 °C 29.99 in /  1015.5 hPa NNW 19.6 mph /  31.5 km/h 14.9 mph /  24 km/h 66 % 0 in /  0 mm
14:24 58.1 °F /  14.5 °C 46.8 °F /  8.2 °C 29.98 in /  1015.1 hPa North 18.4 mph /  29.6 km/h 12.1 mph /  19.5 km/h 66 % 0 in /  0 mm
14:29 58.1 °F /  14.5 °C 46.8 °F /  8.2 °C 29.98 in /  1015.1 hPa North 19.6 mph /  31.5 km/h 14.4 mph /  23.2 km/h 66 % 0 in /  0 mm
14:34 58.3 °F /  14.6 °C 47 °F /  8.3 °C 29.98 in /  1015.1 hPa North 17.3 mph /  27.8 km/h 12.4 mph /  20 km/h 66 % 0 in /  0 mm
14:35 58.3 °F /  14.6 °C 47 °F /  8.3 °C 29.98 in /  1015.1 hPa North 15 mph /  24.1 km/h 12 mph /  19.3 km/h 66 % 0 in /  0 mm
18:54 55.5 °F /  13.1 °C 41.4 °F /  5.2 °C 29.89 in /  1012.1 hPa North 16.1 mph /  25.9 km/h 11.1 mph /  17.9 km/h 59 % 0 in /  0 mm
18:59 55.5 °F /  13.1 °C 41.4 °F /  5.2 °C 29.89 in /  1012.1 hPa NNW 12.7 mph /  20.4 km/h 7.1 mph /  11.4 km/h 59 % 0 in /  0 mm
19:04 55.4 °F /  13 °C 40.9 °F /  4.9 °C 29.89 in /  1012.1 hPa North 12.7 mph /  20.4 km/h 6.8 mph /  10.9 km/h 58 % 0 in /  0 mm
19:09 55.3 °F /  12.9 °C 41.2 °F /  5.1 °C 29.89 in /  1012.1 hPa NNW 15 mph /  24.1 km/h 7.2 mph /  11.6 km/h 59 % 0 in /  0 mm
19:14 55 °F /  12.8 °C 40.9 °F /  4.9 °C 29.89 in /  1012.1 hPa NNW 10.4 mph /  16.7 km/h 7.7 mph /  12.4 km/h 59 % 0 in /  0 mm
19:19 54.9 °F /  12.7 °C 41.3 °F /  5.2 °C 29.89 in /  1012.1 hPa North 19.6 mph /  31.5 km/h 7.4 mph /  11.9 km/h 60 % 0 in /  0 mm
19:24 54.7 °F /  12.6 °C 41.5 °F /  5.3 °C 29.89 in /  1012.1 hPa NNW 10.4 mph /  16.7 km/h 6.8 mph /  10.9 km/h 61 % 0 in /  0 mm
19:29 54.4 °F /  12.4 °C 41.6 °F /  5.3 °C 29.89 in /  1012.1 hPa NNW 11.5 mph /  18.5 km/h 8.1 mph /  13 km/h 62 % 0 in /  0 mm
19:34 54.2 °F /  12.3 °C 41.9 °F /  5.5 °C 29.88 in /  1011.7 hPa North 10.4 mph /  16.7 km/h 8.6 mph /  13.8 km/h 63 % 0 in /  0 mm
19:39 54.1 °F /  12.3 °C 41.8 °F /  5.4 °C 29.88 in /  1011.7 hPa NNW 10.4 mph /  16.7 km/h 7.9 mph /  12.7 km/h 63 % 0 in /  0 mm
19:44 54 °F /  12.2 °C 41.7 °F /  5.4 °C 29.88 in /  1011.7 hPa NNE 10.4 mph /  16.7 km/h 8.3 mph /  13.4 km/h 63 % 0 in /  0 mm
19:49 53.8 °F /  12.1 °C 41.9 °F /  5.5 °C 29.87 in /  1011.4 hPa North 11.5 mph /  18.5 km/h 7.9 mph /  12.7 km/h 64 % 0 in /  0 mm
19:54 53.5 °F /  11.9 °C 41.6 °F /  5.3 °C 29.87 in /  1011.4 hPa North 9.2 mph /  14.8 km/h 6.4 mph /  10.3 km/h 64 % 0 in /  0 mm
19:59 53.4 °F /  11.9 °C 41.5 °F /  5.3 °C 29.88 in /  1011.7 hPa North 11 mph /  17.7 km/h 5.1 mph /  8.2 km/h 64 % 0 in /  0 mm
20:04 53.4 °F /  11.9 °C 41.5 °F /  5.3 °C 29.88 in /  1011.7 hPa North 9.2 mph /  14.8 km/h 5.2 mph /  8.4 km/h 64 % 0 in /  0 mm
20:09 53.4 °F /  11.9 °C 41.1 °F /  5.1 °C 29.88 in /  1011.7 hPa North 11.5 mph /  18.5 km/h 5.4 mph /  8.7 km/h 63 % 0 in /  0 mm
20:14 53.4 °F /  11.9 °C 41.1 °F /  5.1 °C 29.88 in /  1011.7 hPa NNW 12.7 mph /  20.4 km/h 5.8 mph /  9.3 km/h 63 % 0 in /  0 mm
20:19 53.2 °F /  11.8 °C 40.9 °F /  4.9 °C 29.87 in /  1011.4 hPa North 11.5 mph /  18.5 km/h 6.2 mph /  10 km/h 63 % 0 in /  0 mm
20:24 53.1 °F /  11.7 °C 40.4 °F /  4.7 °C 29.87 in /  1011.4 hPa North 8.1 mph /  13 km/h 5 mph /  8 km/h 62 % 0 in /  0 mm
Ararat Weather
Compliments of Weather Underground - 1.75 mb
Click here to send mail.


ABOUT

Live weather data from Ararat, Victoria, Australia, 3377
Data uploaded from Cumulus every 5 minutes to Weather Underground.
This site then downloads the raw data for formatting and display.
Metric and imperial data can be displayed. Graphs and historical data available.
Includes Sun and Moon times and rain image live from BOM.

Check out Ararat Weather on Facebook, Twitter and Google +

Help support ongoing costs by checking out the ads





Follow @AraratWeather